Dallas, TX

12:30 PM CDT on June 25, 2017 (GMT -0500)
Uptown | | Change Station
Active Advisory: Flood Warning

Elev 452 ft 32.79 °N, 96.81 °W | Updated 10 minutes ago

Partly Cloudy
Partly Cloudy
84.0 °F
Feels Like 86 °F
N
1.3
Wind Variable Wind from ESE
Gusts 3.1 mph

Today
High -- | Low -- °F
--% Chance of Precip.
Yesterday
High -- | Low -- °F
Precip. -- in
Pressure 30.20 in
Visibility 10.0 miles
Clouds Few 3500 ft
Scattered Clouds 5500 ft
Scattered Clouds 30000 ft
Heat Index 86 °F
Dew Point 65 °F
Humidity 56%
Rainfall Not available.
Snow Depth Not available.
6:20 AM 8:39 PM
Waxing Crescent, 4% visible
METAR KDAL 251653Z 09012G16KT 10SM FEW035 SCT055 SCT300 28/18 A3022 RMK AO2 SLP226 T02830178 $
Pressure 30.20 in
Visibility 10.0 miles
Clouds Few 3500 ft
Scattered Clouds 5500 ft
Scattered Clouds 30000 ft
Heat Index 86 °F
Dew Point 65 °F
Humidity 56%
Rainfall Not available.
Snow Depth Not available.
6:20 AM 8:39 PM
Waxing Crescent, 4% visible
METAR KDAL 251653Z 09012G16KT 10SM FEW035 SCT055 SCT300 28/18 A3022 RMK AO2 SLP226 T02830178 $

Get Your Daily Forecast Email!

Thanks for signing up!

Be on the lookout for a verification email in your inbox.

You'll start receiving severe weather alerts in your inbox..

×

10-Day Weather Forecast

Almanac

Astronomy

Jun. 25, 2017 Rise Set
Actual Time
Civil Twilight
Nautical Twilight
Astronomical Twilight
Moon
Length of Visible Light
Length of Day
Tomorrow will be .
, % of the Moon is Illuminated

Today's Extremes

State Highs State Lows

Community

WunderPhotos

Category 6

Welcome to Category 6. This is the collective home for Weather Underground's featured writeups by Dr. Jeff Masters (right), Bob Henson (left), Chris Burt, and other regular contributors.

Nearby

Air Quality

  Air Quality AQ Index Pollutant
Not available.

Snow Depth

Station Depth Elevation

Earthquake Activity

City Distance Mag. Time & Date
Minimum magnitude displayed is 2.5.

Coastal Water Temperatures

Place Temperature

Stations

Nearby Weather Stations

Station Location Temp. Windchill Dew Point Humidity Wind Precip. Elev Updated Type
                   

Watches & Warnings

Flood Warning
Issued: 8:46 AM CDT Jun. 25, 2017 – National Weather Service

The Flood Warning continues for
the Trinity River at Dallas.
* At 0800 am Sunday the stage was 33.99 feet.
* Flood stage is 30 feet.
* Minor flooding is occurring and minor flooding is forecast.
* Forecast... the river has crested and will continue to recede and
fall below flood stage by Sunday evening.


Lat... Lon 3275 9693 3281 9693 3283 9683 3275 9671
      3269 9676 3278 9687